sensor_id;sensor_type;location;lat;lon;timestamp;pressure;altitude;pressure_sealevel;temperature;humidity
62124;BME280;48110;47.532;19.078;2022-09-09T00:02:23;100069.72;;;16.72;100.00
62124;BME280;48110;47.532;19.078;2022-09-09T00:05:42;100069.53;;;16.73;100.00
62124;BME280;48110;47.532;19.078;2022-09-09T00:09:10;100078.19;;;16.69;100.00
62124;BME280;48110;47.532;19.078;2022-09-09T00:12:13;100067.84;;;16.79;100.00
62124;BME280;48110;47.532;19.078;2022-09-09T00:15:19;100055.31;;;16.73;100.00
62124;BME280;48110;47.532;19.078;2022-09-09T00:18:29;100056.12;;;16.73;100.00
62124;BME280;48110;47.532;19.078;2022-09-09T00:21:36;100063.97;;;16.75;100.00
62124;BME280;48110;47.532;19.078;2022-09-09T00:24:44;100066.22;;;16.71;100.00
62124;BME280;48110;47.532;19.078;2022-09-09T00:27:49;100061.69;;;16.72;100.00
62124;BME280;48110;47.532;19.078;2022-09-09T00:30:53;100073.63;;;16.76;100.00
62124;BME280;48110;47.532;19.078;2022-09-09T00:34:02;100069.94;;;16.70;100.00
62124;BME280;48110;47.532;19.078;2022-09-09T00:37:08;100075.28;;;16.70;100.00
62124;BME280;48110;47.532;19.078;2022-09-09T00:40:22;100060.47;;;16.68;100.00
62124;BME280;48110;47.532;19.078;2022-09-09T00:43:32;100072.59;;;16.70;100.00
62124;BME280;48110;47.532;19.078;2022-09-09T01:00:54;100083.75;;;16.67;100.00
62124;BME280;48110;47.532;19.078;2022-09-09T01:03:56;100078.19;;;16.69;100.00
62124;BME280;48110;47.532;19.078;2022-09-09T01:07:16;100090.97;;;16.67;100.00
62124;BME280;48110;47.532;19.078;2022-09-09T01:10:29;100089.69;;;16.76;100.00
62124;BME280;48110;47.532;19.078;2022-09-09T01:13:35;100098.34;;;16.78;100.00
62124;BME280;48110;47.532;19.078;2022-09-09T01:16:40;100095.88;;;16.76;100.00
62124;BME280;48110;47.532;19.078;2022-09-09T01:23:07;100079.78;;;16.76;100.00
62124;BME280;48110;47.532;19.078;2022-09-09T01:29:27;100085.63;;;16.67;100.00
62124;BME280;48110;47.532;19.078;2022-09-09T01:32:53;100087.66;;;16.71;100.00
62124;BME280;48110;47.532;19.078;2022-09-09T01:36:02;100094.87;;;16.71;100.00
62124;BME280;48110;47.532;19.078;2022-09-09T01:39:08;100094.87;;;16.71;100.00
62124;BME280;48110;47.532;19.078;2022-09-09T01:42:13;100102.50;;;16.74;100.00
62124;BME280;48110;47.532;19.078;2022-09-09T01:45:17;100104.34;;;16.73;100.00
62124;BME280;48110;47.532;19.078;2022-09-09T01:48:22;100090.75;;;16.75;100.00
62124;BME280;48110;47.532;19.078;2022-09-09T01:51:26;100096.31;;;16.73;100.00
62124;BME280;48110;47.532;19.078;2022-09-09T01:54:31;100092.81;;;16.73;100.00
62124;BME280;48110;47.532;19.078;2022-09-09T02:07:50;100116.28;;;16.71;100.00
62124;BME280;48110;47.532;19.078;2022-09-09T02:11:11;100108.50;;;16.69;100.00
62124;BME280;48110;47.532;19.078;2022-09-09T02:14:21;100103.12;;;16.69;100.00
62124;BME280;48110;47.532;19.078;2022-09-09T02:17:29;100119.84;;;16.65;100.00
62124;BME280;48110;47.532;19.078;2022-09-09T02:20:38;100112.00;;;16.63;100.00
62124;BME280;48110;47.532;19.078;2022-09-09T02:23:43;100115.50;;;16.57;100.00
62124;BME280;48110;47.532;19.078;2022-09-09T02:26:49;100116.16;;;16.52;100.00
62124;BME280;48110;47.532;19.078;2022-09-09T02:29:56;100120.69;;;16.52;100.00
62124;BME280;48110;47.532;19.078;2022-09-09T02:33:04;100120.50;;;16.47;100.00
62124;BME280;48110;47.532;19.078;2022-09-09T02:36:12;100119.84;;;16.51;100.00
62124;BME280;48110;47.532;19.078;2022-09-09T02:39:19;100117.81;;;16.47;100.00
62124;BME280;48110;47.532;19.078;2022-09-09T02:42:22;100118.03;;;16.45;100.00
62124;BME280;48110;47.532;19.078;2022-09-09T02:46:03;100126.28;;;16.44;100.00
62124;BME280;48110;47.532;19.078;2022-09-09T02:49:11;100134.94;;;16.39;100.00
62124;BME280;48110;47.532;19.078;2022-09-09T02:52:25;100128.78;;;16.39;100.00
62124;BME280;48110;47.532;19.078;2022-09-09T02:55:46;100115.81;;;16.36;100.00
62124;BME280;48110;47.532;19.078;2022-09-09T02:58:51;100110.88;;;16.33;100.00
62124;BME280;48110;47.532;19.078;2022-09-09T03:01:54;100119.34;;;16.30;100.00
62124;BME280;48110;47.532;19.078;2022-09-09T03:04:57;100116.22;;;16.33;100.00
62124;BME280;48110;47.532;19.078;2022-09-09T03:08:02;100118.72;;;16.28;100.00
62124;BME280;48110;47.532;19.078;2022-09-09T03:11:07;100113.16;;;16.29;100.00
62124;BME280;48110;47.532;19.078;2022-09-09T03:14:12;100116.25;;;16.26;100.00
62124;BME280;48110;47.532;19.078;2022-09-09T03:17:15;100127.38;;;16.23;100.00
62124;BME280;48110;47.532;19.078;2022-09-09T03:20:19;100131.50;;;16.19;100.00
62124;BME280;48110;47.532;19.078;2022-09-09T03:23:23;100126.97;;;16.20;100.00
62124;BME280;48110;47.532;19.078;2022-09-09T03:26:26;100129.66;;;16.13;100.00
62124;BME280;48110;47.532;19.078;2022-09-09T03:29:30;100132.75;;;16.17;100.00
62124;BME280;48110;47.532;19.078;2022-09-09T03:32:34;100134.63;;;16.09;100.00
62124;BME280;48110;47.532;19.078;2022-09-09T03:35:37;100127.84;;;16.07;100.00
62124;BME280;48110;47.532;19.078;2022-09-09T03:38:41;100137.09;;;16.11;100.00
62124;BME280;48110;47.532;19.078;2022-09-09T03:41:44;100140.41;;;16.00;100.00
62124;BME280;48110;47.532;19.078;2022-09-09T03:44:49;100134.22;;;15.99;100.00
62124;BME280;48110;47.532;19.078;2022-09-09T03:47:53;100138.97;;;15.97;100.00
62124;BME280;48110;47.532;19.078;2022-09-09T03:50:56;100136.06;;;15.99;100.00
62124;BME280;48110;47.532;19.078;2022-09-09T03:54:04;100141.66;;;15.91;100.00
62124;BME280;48110;47.532;19.078;2022-09-09T03:57:10;100141.84;;;15.89;100.00
62124;BME280;48110;47.532;19.078;2022-09-09T04:00:14;100157.72;;;15.97;100.00
62124;BME280;48110;47.532;19.078;2022-09-09T04:03:19;100157.72;;;15.97;100.00
62124;BME280;48110;47.532;19.078;2022-09-09T04:06:28;100152.75;;;15.94;100.00
62124;BME280;48110;47.532;19.078;2022-09-09T04:09:32;100148.22;;;15.95;100.00
62124;BME280;48110;47.532;19.078;2022-09-09T04:12:36;100152.97;;;15.99;100.00
62124;BME280;48110;47.532;19.078;2022-09-09T04:15:38;100153.97;;;15.98;100.00
62124;BME280;48110;47.532;19.078;2022-09-09T04:18:42;100155.22;;;15.96;100.00
62124;BME280;48110;47.532;19.078;2022-09-09T04:21:45;100154.59;;;15.94;100.00
62124;BME280;48110;47.532;19.078;2022-09-09T04:24:48;100157.50;;;15.86;100.00
62124;BME280;48110;47.532;19.078;2022-09-09T04:27:56;100167.59;;;15.90;100.00
62124;BME280;48110;47.532;19.078;2022-09-09T04:31:07;100155.84;;;15.91;100.00
62124;BME280;48110;47.532;19.078;2022-09-09T04:34:12;100157.72;;;15.91;100.00
62124;BME280;48110;47.532;19.078;2022-09-09T04:37:15;100149.06;;;15.89;100.00
62124;BME280;48110;47.532;19.078;2022-09-09T04:40:17;100159.13;;;16.00;100.00
62124;BME280;48110;47.532;19.078;2022-09-09T04:43:21;100160.19;;;15.92;100.00
62124;BME280;48110;47.532;19.078;2022-09-09T04:46:25;100166.97;;;15.95;100.00
62124;BME280;48110;47.532;19.078;2022-09-09T04:49:28;100160.59;;;15.96;100.00
62124;BME280;48110;47.532;19.078;2022-09-09T04:52:34;100143.50;;;15.97;100.00
62124;BME280;48110;47.532;19.078;2022-09-09T04:55:38;100143.91;;;16.07;100.00
62124;BME280;48110;47.532;19.078;2022-09-09T04:58:41;100151.31;;;16.12;100.00
62124;BME280;48110;47.532;19.078;2022-09-09T05:01:48;100145.31;;;16.16;100.00
62124;BME280;48110;47.532;19.078;2022-09-09T05:04:53;100137.69;;;16.20;100.00
62124;BME280;48110;47.532;19.078;2022-09-09T05:08:03;100158.03;;;16.34;100.00
62124;BME280;48110;47.532;19.078;2022-09-09T05:11:18;100162.34;;;16.35;100.00
62124;BME280;48110;47.532;19.078;2022-09-09T05:14:21;100165.00;;;16.41;100.00
62124;BME280;48110;47.532;19.078;2022-09-09T05:17:25;100160.72;;;16.34;100.00
62124;BME280;48110;47.532;19.078;2022-09-09T05:20:28;100160.72;;;16.27;100.00
62124;BME280;48110;47.532;19.078;2022-09-09T05:23:31;100166.69;;;16.36;100.00
62124;BME280;48110;47.532;19.078;2022-09-09T05:26:34;100162.13;;;16.43;100.00
62124;BME280;48110;47.532;19.078;2022-09-09T05:29:38;100164.75;;;16.63;100.00
62124;BME280;48110;47.532;19.078;2022-09-09T05:32:41;100162.87;;;16.70;100.00
62124;BME280;48110;47.532;19.078;2022-09-09T05:35:44;100174.19;;;16.72;100.00
62124;BME280;48110;47.532;19.078;2022-09-09T05:38:47;100180.75;;;16.76;100.00
62124;BME280;48110;47.532;19.078;2022-09-09T05:41:51;100177.62;;;16.85;100.00
62124;BME280;48110;47.532;19.078;2022-09-09T05:44:54;100171.88;;;16.88;100.00
62124;BME280;48110;47.532;19.078;2022-09-09T05:47:57;100184.00;;;16.91;100.00
62124;BME280;48110;47.532;19.078;2022-09-09T05:51:03;100180.28;;;16.92;100.00
62124;BME280;48110;47.532;19.078;2022-09-09T05:54:06;100174.00;;;17.11;100.00
62124;BME280;48110;47.532;19.078;2022-09-09T05:57:09;100171.69;;;17.21;100.00
62124;BME280;48110;47.532;19.078;2022-09-09T06:00:13;100172.41;;;17.35;100.00
62124;BME280;48110;47.532;19.078;2022-09-09T06:03:18;100175.78;;;17.24;100.00
62124;BME280;48110;47.532;19.078;2022-09-09T06:06:26;100170.81;;;17.27;100.00
62124;BME280;48110;47.532;19.078;2022-09-09T06:09:30;100174.78;;;17.50;100.00
62124;BME280;48110;47.532;19.078;2022-09-09T06:12:32;100177.38;;;17.63;100.00
62124;BME280;48110;47.532;19.078;2022-09-09T06:15:36;100183.88;;;17.80;100.00
62124;BME280;48110;47.532;19.078;2022-09-09T06:18:40;100184.41;;;17.89;100.00
62124;BME280;48110;47.532;19.078;2022-09-09T06:21:43;100189.72;;;18.38;100.00
62124;BME280;48110;47.532;19.078;2022-09-09T06:24:46;100179.75;;;18.20;100.00
62124;BME280;48110;47.532;19.078;2022-09-09T06:27:49;100179.00;;;18.13;100.00
62124;BME280;48110;47.532;19.078;2022-09-09T06:30:58;100180.84;;;18.56;100.00
62124;BME280;48110;47.532;19.078;2022-09-09T06:34:01;100182.97;;;18.84;100.00
62124;BME280;48110;47.532;19.078;2022-09-09T06:37:05;100191.34;;;19.53;100.00
62124;BME280;48110;47.532;19.078;2022-09-09T06:40:10;100197.97;;;20.27;96.24
62124;BME280;48110;47.532;19.078;2022-09-09T06:43:13;100191.06;;;20.43;93.50
62124;BME280;48110;47.532;19.078;2022-09-09T06:46:22;100186.66;;;20.77;90.88
62124;BME280;48110;47.532;19.078;2022-09-09T06:49:26;100192.16;;;21.22;87.93
62124;BME280;48110;47.532;19.078;2022-09-09T06:52:29;100195.75;;;20.48;87.29
62124;BME280;48110;47.532;19.078;2022-09-09T06:55:31;100195.75;;;20.01;90.68
62124;BME280;48110;47.532;19.078;2022-09-09T06:58:39;100190.72;;;20.28;89.48
62124;BME280;48110;47.532;19.078;2022-09-09T07:01:47;100184.75;;;20.03;89.36
62124;BME280;48110;47.532;19.078;2022-09-09T07:04:57;100190.31;;;19.66;92.54
62124;BME280;48110;47.532;19.078;2022-09-09T07:08:01;100200.75;;;19.74;91.10
62124;BME280;48110;47.532;19.078;2022-09-09T07:11:06;100205.03;;;19.52;94.17
62124;BME280;48110;47.532;19.078;2022-09-09T07:14:14;100208.84;;;19.15;96.84
62124;BME280;48110;47.532;19.078;2022-09-09T07:17:18;100204.28;;;18.85;100.00
62124;BME280;48110;47.532;19.078;2022-09-09T07:20:21;100202.56;;;18.73;100.00
62124;BME280;48110;47.532;19.078;2022-09-09T07:23:24;100198.28;;;18.47;100.00
62124;BME280;48110;47.532;19.078;2022-09-09T07:26:31;100192.84;;;19.20;100.00
62124;BME280;48110;47.532;19.078;2022-09-09T07:29:34;100199.56;;;20.63;90.07
62124;BME280;48110;47.532;19.078;2022-09-09T07:32:37;100193.84;;;20.71;87.61
62124;BME280;48110;47.532;19.078;2022-09-09T07:35:40;100206.03;;;21.14;85.72
62124;BME280;48110;47.532;19.078;2022-09-09T07:38:47;100213.81;;;20.87;86.45
62124;BME280;48110;47.532;19.078;2022-09-09T07:41:50;100223.22;;;21.69;82.23
62124;BME280;48110;47.532;19.078;2022-09-09T07:44:53;100228.81;;;23.60;72.11
62124;BME280;48110;47.532;19.078;2022-09-09T07:47:58;100228.84;;;23.97;69.92
62124;BME280;48110;47.532;19.078;2022-09-09T07:51:12;100232.19;;;24.46;67.97
62124;BME280;48110;47.532;19.078;2022-09-09T07:54:20;100231.78;;;24.69;64.64
62124;BME280;48110;47.532;19.078;2022-09-09T07:57:23;100231.72;;;24.54;65.27
62124;BME280;48110;47.532;19.078;2022-09-09T08:00:26;100226.00;;;24.56;63.96
62124;BME280;48110;47.532;19.078;2022-09-09T08:03:34;100229.78;;;25.02;63.43
62124;BME280;48110;47.532;19.078;2022-09-09T08:06:39;100224.91;;;25.09;61.47
62124;BME280;48110;47.532;19.078;2022-09-09T08:09:44;100233.47;;;26.39;57.55
62124;BME280;48110;47.532;19.078;2022-09-09T08:12:46;100227.66;;;24.57;63.71
62124;BME280;48110;47.532;19.078;2022-09-09T08:16:21;100232.25;;;25.08;63.05
62124;BME280;48110;47.532;19.078;2022-09-09T08:19:24;100221.69;;;28.06;53.95
62124;BME280;48110;47.532;19.078;2022-09-09T08:22:28;100224.03;;;27.50;51.44
62124;BME280;48110;47.532;19.078;2022-09-09T08:25:30;100237.66;;;27.01;53.02
62124;BME280;48110;47.532;19.078;2022-09-09T08:28:33;100234.53;;;27.22;52.85
62124;BME280;48110;47.532;19.078;2022-09-09T08:31:38;100231.44;;;27.44;52.12
62124;BME280;48110;47.532;19.078;2022-09-09T08:34:41;100228.47;;;28.14;49.88
62124;BME280;48110;47.532;19.078;2022-09-09T08:37:53;100224.75;;;27.99;49.57
62124;BME280;48110;47.532;19.078;2022-09-09T08:41:07;100214.69;;;27.17;52.31
62124;BME280;48110;47.532;19.078;2022-09-09T08:50:52;100227.28;;;31.45;43.25
62124;BME280;48110;47.532;19.078;2022-09-09T08:53:58;100235.28;;;31.05;42.67
62124;BME280;48110;47.532;19.078;2022-09-09T08:57:11;100231.19;;;32.11;40.29
62124;BME280;48110;47.532;19.078;2022-09-09T09:00:19;100232.84;;;30.90;43.24
62124;BME280;48110;47.532;19.078;2022-09-09T09:03:35;100215.31;;;27.48;50.34
62124;BME280;48110;47.532;19.078;2022-09-09T09:07:12;100220.19;;;26.27;54.68
62124;BME280;48110;47.532;19.078;2022-09-09T09:11:10;100211.75;;;24.81;58.92
62124;BME280;48110;47.532;19.078;2022-09-09T09:14:14;100211.62;;;23.76;63.00
62124;BME280;48110;47.532;19.078;2022-09-09T09:17:16;100212.22;;;23.03;65.45
62124;BME280;48110;47.532;19.078;2022-09-09T09:20:32;100209.84;;;22.85;69.97
62124;BME280;48110;47.532;19.078;2022-09-09T09:23:44;100204.62;;;22.40;67.32
62124;BME280;48110;47.532;19.078;2022-09-09T09:26:49;100210.28;;;22.38;69.50
62124;BME280;48110;47.532;19.078;2022-09-09T09:29:54;100206.81;;;22.43;67.38
62124;BME280;48110;47.532;19.078;2022-09-09T09:33:28;100195.56;;;22.29;67.06
62124;BME280;48110;47.532;19.078;2022-09-09T09:36:42;100185.41;;;22.20;65.85
62124;BME280;48110;47.532;19.078;2022-09-09T09:39:47;100189.19;;;22.19;66.32
62124;BME280;48110;47.532;19.078;2022-09-09T09:43:20;100185.50;;;22.08;67.98
62124;BME280;48110;47.532;19.078;2022-09-09T09:46:25;100190.75;;;21.98;67.07
62124;BME280;48110;47.532;19.078;2022-09-09T09:49:29;100177.31;;;22.03;68.13
62124;BME280;48110;47.532;19.078;2022-09-09T09:52:32;100179.34;;;22.13;69.19
62124;BME280;48110;47.532;19.078;2022-09-09T09:55:50;100182.34;;;22.33;68.08
62124;BME280;48110;47.532;19.078;2022-09-09T09:58:56;100181.56;;;22.54;68.33
62124;BME280;48110;47.532;19.078;2022-09-09T10:02:21;100187.13;;;22.86;65.65
62124;BME280;48110;47.532;19.078;2022-09-09T10:05:30;100190.88;;;22.63;64.13
62124;BME280;48110;47.532;19.078;2022-09-09T10:08:46;100190.34;;;22.83;63.64
62124;BME280;48110;47.532;19.078;2022-09-09T10:18:58;100187.47;;;23.70;59.86
62124;BME280;48110;47.532;19.078;2022-09-09T10:25:48;100193.19;;;24.52;56.58
62124;BME280;48110;47.532;19.078;2022-09-09T10:32:46;100188.38;;;25.62;54.72
62124;BME280;48110;47.532;19.078;2022-09-09T10:39:38;100179.63;;;26.21;50.97
62124;BME280;48110;47.532;19.078;2022-09-09T10:42:44;100177.53;;;26.82;48.11
62124;BME280;48110;47.532;19.078;2022-09-09T10:52:36;100186.66;;;28.71;43.47
62124;BME280;48110;47.532;19.078;2022-09-09T10:55:49;100184.91;;;32.26;37.85
62124;BME280;48110;47.532;19.078;2022-09-09T10:59:02;100190.38;;;33.57;32.50
62124;BME280;48110;47.532;19.078;2022-09-09T11:02:26;100175.53;;;36.90;27.91
62124;BME280;48110;47.532;19.078;2022-09-09T11:05:39;100179.50;;;37.84;27.10
62124;BME280;48110;47.532;19.078;2022-09-09T11:08:44;100177.38;;;37.10;25.92
62124;BME280;48110;47.532;19.078;2022-09-09T11:11:54;100186.50;;;36.98;26.42
62124;BME280;48110;47.532;19.078;2022-09-09T11:15:08;100195.41;;;39.51;23.82
62124;BME280;48110;47.532;19.078;2022-09-09T11:18:20;100175.31;;;39.39;23.99
62124;BME280;48110;47.532;19.078;2022-09-09T11:21:29;100165.81;;;38.19;25.55
62124;BME280;48110;47.532;19.078;2022-09-09T11:24:38;100155.91;;;35.98;26.60
62124;BME280;48110;47.532;19.078;2022-09-09T11:41:36;100160.34;;;38.07;25.80
62124;BME280;48110;47.532;19.078;2022-09-09T11:44:41;100155.87;;;39.20;24.10
62124;BME280;48110;47.532;19.078;2022-09-09T11:47:52;100153.97;;;38.54;24.66
62124;BME280;48110;47.532;19.078;2022-09-09T11:51:08;100144.44;;;40.05;23.02
62124;BME280;48110;47.532;19.078;2022-09-09T11:54:29;100120.84;;;40.41;21.12
62124;BME280;48110;47.532;19.078;2022-09-09T11:57:35;100141.63;;;39.79;22.27
62124;BME280;48110;47.532;19.078;2022-09-09T12:00:41;100131.34;;;37.73;24.46
62124;BME280;48110;47.532;19.078;2022-09-09T12:03:48;100136.63;;;37.51;24.50
62124;BME280;48110;47.532;19.078;2022-09-09T12:10:30;100125.25;;;36.24;26.02
62124;BME280;48110;47.532;19.078;2022-09-09T12:13:35;100131.22;;;36.38;26.18
62124;BME280;48110;47.532;19.078;2022-09-09T12:16:39;100133.88;;;36.34;25.80
62124;BME280;48110;47.532;19.078;2022-09-09T12:19:42;100134.44;;;33.99;28.77
62124;BME280;48110;47.532;19.078;2022-09-09T12:26:20;100146.97;;;31.98;32.63
62124;BME280;48110;47.532;19.078;2022-09-09T12:29:53;100136.94;;;31.62;32.79
62124;BME280;48110;47.532;19.078;2022-09-09T12:33:06;100134.06;;;33.11;30.00
62124;BME280;48110;47.532;19.078;2022-09-09T12:36:14;100130.22;;;36.30;25.56
62124;BME280;48110;47.532;19.078;2022-09-09T12:39:32;100117.56;;;35.72;26.43
62124;BME280;48110;47.532;19.078;2022-09-09T12:42:40;100112.28;;;35.46;27.09
62124;BME280;48110;47.532;19.078;2022-09-09T12:45:43;100110.59;;;35.54;26.26
62124;BME280;48110;47.532;19.078;2022-09-09T12:48:47;100114.66;;;38.01;23.06
62124;BME280;48110;47.532;19.078;2022-09-09T12:51:50;100110.72;;;37.86;23.41
62124;BME280;48110;47.532;19.078;2022-09-09T12:54:53;100107.44;;;38.12;23.28
62124;BME280;48110;47.532;19.078;2022-09-09T12:57:57;100107.09;;;38.64;22.82
62124;BME280;48110;47.532;19.078;2022-09-09T13:01:02;100096.62;;;38.07;23.52
62124;BME280;48110;47.532;19.078;2022-09-09T13:04:20;100101.09;;;41.39;19.46
62124;BME280;48110;47.532;19.078;2022-09-09T13:07:24;100098.16;;;43.68;17.82
62124;BME280;48110;47.532;19.078;2022-09-09T13:10:33;100077.31;;;37.64;23.05
62124;BME280;48110;47.532;19.078;2022-09-09T13:13:56;100081.47;;;40.13;20.91
62124;BME280;48110;47.532;19.078;2022-09-09T13:17:00;100073.63;;;39.31;21.94
62124;BME280;48110;47.532;19.078;2022-09-09T13:20:05;100068.59;;;41.94;18.96
62124;BME280;48110;47.532;19.078;2022-09-09T13:23:11;100059.44;;;39.78;21.29
62124;BME280;48110;47.532;19.078;2022-09-09T13:26:27;100066.25;;;41.56;18.98
62124;BME280;48110;47.532;19.078;2022-09-09T13:29:31;100058.88;;;42.22;18.98
62124;BME280;48110;47.532;19.078;2022-09-09T13:32:34;100047.16;;;36.51;24.34
62124;BME280;48110;47.532;19.078;2022-09-09T13:35:58;100046.03;;;34.60;26.17
62124;BME280;48110;47.532;19.078;2022-09-09T13:39:03;100044.37;;;32.72;29.04
62124;BME280;48110;47.532;19.078;2022-09-09T13:42:23;100040.78;;;31.36;30.97
62124;BME280;48110;47.532;19.078;2022-09-09T13:45:28;100036.97;;;30.30;33.89
62124;BME280;48110;47.532;19.078;2022-09-09T13:48:30;100039.22;;;30.14;35.61
62124;BME280;48110;47.532;19.078;2022-09-09T13:51:40;100041.88;;;29.46;34.42
62124;BME280;48110;47.532;19.078;2022-09-09T13:54:51;100035.09;;;28.92;35.44
62124;BME280;48110;47.532;19.078;2022-09-09T13:58:02;100029.03;;;29.27;35.32
62124;BME280;48110;47.532;19.078;2022-09-09T14:01:07;100026.28;;;28.58;36.67
62124;BME280;48110;47.532;19.078;2022-09-09T14:04:10;100021.81;;;29.96;35.33
62124;BME280;48110;47.532;19.078;2022-09-09T14:07:14;100019.41;;;30.31;33.57
62124;BME280;48110;47.532;19.078;2022-09-09T14:10:18;100015.41;;;31.92;30.01
62124;BME280;48110;47.532;19.078;2022-09-09T14:13:21;100006.31;;;32.49;29.82
62124;BME280;48110;47.532;19.078;2022-09-09T14:16:26;99997.62;;;31.20;33.60
62124;BME280;48110;47.532;19.078;2022-09-09T14:19:30;99992.72;;;30.36;35.36
62124;BME280;48110;47.532;19.078;2022-09-09T14:22:34;99991.75;;;28.85;35.84
62124;BME280;48110;47.532;19.078;2022-09-09T14:25:39;99993.63;;;28.90;36.54
62124;BME280;48110;47.532;19.078;2022-09-09T14:28:42;99987.88;;;27.69;38.65
62124;BME280;48110;47.532;19.078;2022-09-09T14:32:01;99992.91;;;27.28;39.76
62124;BME280;48110;47.532;19.078;2022-09-09T14:35:04;99997.53;;;27.56;39.83
62124;BME280;48110;47.532;19.078;2022-09-09T14:38:07;99992.16;;;26.89;39.92
62124;BME280;48110;47.532;19.078;2022-09-09T14:41:12;99991.50;;;26.63;41.04
62124;BME280;48110;47.532;19.078;2022-09-09T14:44:15;99990.78;;;26.91;39.32
62124;BME280;48110;47.532;19.078;2022-09-09T14:47:18;99979.94;;;27.49;38.82
62124;BME280;48110;47.532;19.078;2022-09-09T14:50:22;99980.78;;;27.92;37.87
62124;BME280;48110;47.532;19.078;2022-09-09T14:53:25;99978.78;;;27.79;36.90
62124;BME280;48110;47.532;19.078;2022-09-09T14:56:33;99972.00;;;27.47;36.90
62124;BME280;48110;47.532;19.078;2022-09-09T14:59:37;99989.19;;;27.72;39.44
62124;BME280;48110;47.532;19.078;2022-09-09T15:02:39;99992.16;;;27.46;42.51
62124;BME280;48110;47.532;19.078;2022-09-09T15:05:42;99985.81;;;26.98;40.62
62124;BME280;48110;47.532;19.078;2022-09-09T15:08:45;99985.34;;;27.20;44.35
62124;BME280;48110;47.532;19.078;2022-09-09T15:11:48;99982.28;;;26.98;38.45
62124;BME280;48110;47.532;19.078;2022-09-09T15:14:51;99981.34;;;26.73;40.51
62124;BME280;48110;47.532;19.078;2022-09-09T15:17:56;99993.28;;;26.77;39.84
62124;BME280;48110;47.532;19.078;2022-09-09T15:21:03;99986.19;;;26.87;42.88
62124;BME280;48110;47.532;19.078;2022-09-09T15:24:07;99987.94;;;26.67;41.15
62124;BME280;48110;47.532;19.078;2022-09-09T15:27:10;99986.59;;;26.65;39.81
62124;BME280;48110;47.532;19.078;2022-09-09T15:30:13;99983.28;;;26.68;39.54
62124;BME280;48110;47.532;19.078;2022-09-09T15:33:16;99982.16;;;26.74;43.49
62124;BME280;48110;47.532;19.078;2022-09-09T15:36:24;99975.03;;;26.44;41.87
62124;BME280;48110;47.532;19.078;2022-09-09T15:39:27;99984.94;;;26.15;42.57
62124;BME280;48110;47.532;19.078;2022-09-09T15:42:31;99991.97;;;26.31;40.69
62124;BME280;48110;47.532;19.078;2022-09-09T15:45:33;99977.38;;;26.61;39.82
62124;BME280;48110;47.532;19.078;2022-09-09T15:48:36;99982.56;;;26.57;43.56
62124;BME280;48110;47.532;19.078;2022-09-09T15:52:02;99986.22;;;26.43;41.95
62124;BME280;48110;47.532;19.078;2022-09-09T15:55:06;99975.12;;;26.29;44.44
62124;BME280;48110;47.532;19.078;2022-09-09T15:58:10;99983.44;;;25.93;41.38
62124;BME280;48110;47.532;19.078;2022-09-09T16:01:15;99982.19;;;25.61;43.46
62124;BME280;48110;47.532;19.078;2022-09-09T16:04:19;99986.03;;;25.19;42.76
62124;BME280;48110;47.532;19.078;2022-09-09T16:07:25;99982.50;;;25.14;43.70
62124;BME280;48110;47.532;19.078;2022-09-09T16:10:29;99986.34;;;25.07;43.46
62124;BME280;48110;47.532;19.078;2022-09-09T16:13:34;99989.56;;;25.04;46.05
62124;BME280;48110;47.532;19.078;2022-09-09T16:16:37;99992.00;;;24.86;47.11
62124;BME280;48110;47.532;19.078;2022-09-09T16:19:41;99999.59;;;24.68;47.62
62124;BME280;48110;47.532;19.078;2022-09-09T16:22:43;99998.47;;;24.54;48.13
62124;BME280;48110;47.532;19.078;2022-09-09T16:25:55;100001.41;;;24.33;48.42
62124;BME280;48110;47.532;19.078;2022-09-09T16:28:59;99999.47;;;24.18;49.23
62124;BME280;48110;47.532;19.078;2022-09-09T16:32:02;100010.31;;;24.23;49.77
62124;BME280;48110;47.532;19.078;2022-09-09T16:35:06;100007.34;;;24.24;49.60
62124;BME280;48110;47.532;19.078;2022-09-09T16:38:09;100006.72;;;24.12;53.26
62124;BME280;48110;47.532;19.078;2022-09-09T16:41:13;99998.47;;;23.87;53.55
62124;BME280;48110;47.532;19.078;2022-09-09T16:44:17;100003.84;;;23.72;53.66
62124;BME280;48110;47.532;19.078;2022-09-09T16:47:21;99994.53;;;23.58;53.51
62124;BME280;48110;47.532;19.078;2022-09-09T16:50:24;99988.44;;;23.40;54.71
62124;BME280;48110;47.532;19.078;2022-09-09T16:53:26;100001.34;;;23.23;54.84
62124;BME280;48110;47.532;19.078;2022-09-09T16:56:31;99988.50;;;23.09;55.79
62124;BME280;48110;47.532;19.078;2022-09-09T16:59:39;99991.09;;;22.93;56.73
62124;BME280;48110;47.532;19.078;2022-09-09T17:02:43;99999.63;;;22.80;57.58
62124;BME280;48110;47.532;19.078;2022-09-09T17:05:47;100003.28;;;22.69;57.72
62124;BME280;48110;47.532;19.078;2022-09-09T17:08:57;100005.84;;;22.54;58.29
62124;BME280;48110;47.532;19.078;2022-09-09T17:12:01;100002.25;;;22.48;59.16
62124;BME280;48110;47.532;19.078;2022-09-09T17:15:04;100000.78;;;22.36;60.52
62124;BME280;48110;47.532;19.078;2022-09-09T17:18:10;100009.03;;;22.24;61.05
62124;BME280;48110;47.532;19.078;2022-09-09T17:21:15;100013.47;;;22.14;62.08
62124;BME280;48110;47.532;19.078;2022-09-09T17:24:19;100013.34;;;22.03;62.84
62124;BME280;48110;47.532;19.078;2022-09-09T17:27:22;100015.09;;;21.93;63.17